Time;durP1;ratioP1;P1;durP2;ratioP2;P2;SDS_P1;SDS_P2;PMS_P1;PMS_P2;Temp;Humidity;BMP_temperature;BMP_pressure;BME280_temperature;BME280_humidity;BME280_pressure;Samples;Min_cycle;Max_cycle;Signal;HPM_P1;HPM_P2
2023/10/13 00:02:03;;;;;;;9.85;4.38;;;;;;;-149.70;100.00;76802.63;5029024;28;20041;-65
2023/10/13 00:04:32;;;;;;;9.35;4.70;;;;;;;-149.70;100.00;76798.56;5029779;28;20056;-65
2023/10/13 00:07:02;;;;;;;16.85;4.72;;;;;;;-149.70;100.00;76786.38;5029577;28;20041;-65
2023/10/13 00:09:32;;;;;;;15.95;4.82;;;;;;;-149.70;100.00;76792.47;5029379;28;20401;-65
2023/10/13 00:12:00;;;;;;;13.30;4.82;;;;;;;-149.70;100.00;76780.25;5029377;28;20095;-66
2023/10/13 00:14:33;;;;;;;13.70;4.85;;;;;;;-149.70;100.00;76784.31;5029987;28;20045;-66
2023/10/13 00:17:07;;;;;;;13.10;4.75;;;;;;;-149.70;100.00;76776.19;5029160;28;20049;-65
2023/10/13 00:19:46;;;;;;;13.90;4.28;;;;;;;-149.70;100.00;76770.09;5028996;28;20053;-66
2023/10/13 00:22:19;;;;;;;17.88;4.80;;;;;;;-149.70;100.00;76770.09;5029086;28;20053;-66
2023/10/13 00:24:46;;;;;;;12.90;4.55;;;;;;;-149.70;100.00;76766.03;5029067;28;20137;-66
2023/10/13 00:32:57;;;;;;;8.80;5.07;;;;;;;-149.70;100.00;76810.75;5028767;28;20048;-65
2023/10/13 00:35:25;;;;;;;14.73;5.30;;;;;;;-149.70;100.00;76804.66;5029087;28;20045;-65
2023/10/13 00:37:55;;;;;;;11.95;5.40;;;;;;;-149.70;100.00;76784.31;5028832;28;20489;-66
2023/10/13 00:46:07;;;;;;;12.98;6.47;;;;;;;-149.70;100.00;76772.13;5028682;28;20045;-65
2023/10/13 00:48:43;;;;;;;12.55;6.20;;;;;;;-149.70;100.00;76764.00;5029009;28;20049;-65
2023/10/13 00:51:18;;;;;;;16.00;6.57;;;;;;;-149.70;100.00;76770.09;5028963;28;20052;-66
2023/10/13 00:53:47;;;;;;;21.35;6.32;;;;;;;-149.70;100.00;76784.31;5028537;28;20064;-65
2023/10/13 00:56:27;;;;;;;14.98;6.55;;;;;;;-149.70;100.00;76776.19;5028542;28;20564;-65
2023/10/13 00:58:57;;;;;;;15.82;5.72;;;;;;;-149.70;100.00;76784.31;5028918;28;20115;-65
2023/10/13 01:01:29;;;;;;;11.32;5.82;;;;;;;-149.70;100.00;76796.53;5031250;28;20096;-66
2023/10/13 01:03:59;;;;;;;11.65;4.22;;;;;;;-149.70;100.00;76804.66;5032677;28;20053;-64
2023/10/13 01:06:27;;;;;;;18.02;6.30;;;;;;;-149.70;100.00;76804.66;5032494;28;20056;-66
2023/10/13 01:08:59;;;;;;;16.08;5.93;;;;;;;-149.70;100.00;76792.47;5031871;28;20124;-65
2023/10/13 01:11:29;;;;;;;15.32;6.70;;;;;;;-149.70;100.00;76782.28;5032715;28;20072;-65
2023/10/13 01:13:57;;;;;;;15.57;7.07;;;;;;;-149.70;100.00;76786.38;5032512;28;20064;-64
2023/10/13 01:16:26;;;;;;;14.70;7.07;;;;;;;-149.70;100.00;76766.03;5031934;28;20103;-66
2023/10/13 01:18:59;;;;;;;21.40;7.75;;;;;;;-149.70;100.00;76780.25;5031611;28;20048;-65
2023/10/13 01:21:29;;;;;;;16.58;8.40;;;;;;;-149.70;100.00;76784.31;5031999;28;20041;-66
2023/10/13 01:23:56;;;;;;;18.85;8.05;;;;;;;-149.70;100.00;76768.06;5032354;28;20497;-66
2023/10/13 01:26:26;;;;;;;15.95;9.20;;;;;;;-149.70;100.00;76790.44;5031525;28;20045;-65
2023/10/13 01:28:59;;;;;;;15.52;8.85;;;;;;;-149.70;100.00;76788.41;5031396;28;20045;-65
2023/10/13 01:31:29;;;;;;;18.58;10.13;;;;;;;-149.70;100.00;76796.53;5030431;28;20041;-65
2023/10/13 01:34:00;;;;;;;28.83;10.33;;;;;;;-149.70;100.00;76804.66;5031756;28;20501;-65
2023/10/13 01:36:28;;;;;;;18.40;10.80;;;;;;;-149.70;100.00;76796.53;5031961;28;20472;-65
2023/10/13 01:38:54;;;;;;;19.35;10.88;;;;;;;-149.70;100.00;76800.59;5031388;28;20409;-65
2023/10/13 01:41:22;;;;;;;19.63;10.18;;;;;;;-149.70;100.00;76800.59;5031601;28;20053;-65
2023/10/13 01:43:49;;;;;;;19.17;11.20;;;;;;;-149.70;100.00;76796.53;5032022;28;20401;-65
2023/10/13 01:46:19;;;;;;;20.20;10.88;;;;;;;-149.70;100.00;76806.69;5031426;28;20042;-65
2023/10/13 01:48:46;;;;;;;17.20;11.18;;;;;;;-149.70;100.00;76798.56;5031956;28;20045;-65
2023/10/13 01:51:13;;;;;;;23.38;13.75;;;;;;;-149.70;100.00;76812.78;5032214;28;20076;-65
2023/10/13 01:53:43;;;;;;;18.83;12.82;;;;;;;-149.70;100.00;76808.72;5031070;28;20060;-66
2023/10/13 01:56:10;;;;;;;23.42;13.05;;;;;;;-149.70;100.00;76802.63;5030379;28;20045;-64
2023/10/13 01:58:41;;;;;;;25.92;13.13;;;;;;;-149.70;100.00;76812.78;5031001;28;20041;-64
2023/10/13 02:01:11;;;;;;;19.42;12.52;;;;;;;-149.70;100.00;76802.63;5031402;28;20049;-65
2023/10/13 02:03:46;;;;;;;24.67;12.50;;;;;;;-149.70;100.00;76794.50;5030835;28;20049;-65
2023/10/13 02:09:59;;;;;;;21.60;12.57;;;;;;;-149.70;100.00;76778.22;5030256;28;20048;-65
2023/10/13 02:12:36;;;;;;;20.58;12.00;;;;;;;-149.70;100.00;76755.84;5030202;28;20053;-64
2023/10/13 02:15:04;;;;;;;22.02;11.90;;;;;;;-149.70;100.00;76751.78;5030029;28;20559;-65
2023/10/13 02:17:40;;;;;;;18.27;12.65;;;;;;;-149.70;100.00;76741.63;5030486;28;20075;-64
2023/10/13 02:20:14;;;;;;;21.60;11.80;;;;;;;-149.70;100.00;76723.31;5030729;28;20049;-65
2023/10/13 02:22:50;;;;;;;20.90;11.98;;;;;;;-149.70;100.00;76733.50;5030332;28;20034;-65
2023/10/13 02:28:15;;;;;;;29.45;13.27;;;;;;;-149.70;100.00;76743.66;5020716;28;20099;-66
2023/10/13 02:30:48;;;;;;;22.35;12.93;;;;;;;-149.70;100.00;76751.78;5029922;28;20045;-65
2023/10/13 02:33:21;;;;;;;23.27;14.07;;;;;;;-149.70;100.00;76753.81;5030346;28;20045;-65
2023/10/13 02:35:54;;;;;;;23.20;13.75;;;;;;;-149.70;100.00;76759.94;5030065;28;20045;-65
2023/10/13 02:41:25;;;;;;;27.83;14.95;;;;;;;-149.70;100.00;76768.06;5029767;28;20095;-66
2023/10/13 02:43:54;;;;;;;28.15;14.98;;;;;;;-149.70;100.00;76764.00;5030332;28;20041;-66
2023/10/13 02:46:28;;;;;;;30.83;15.20;;;;;;;-149.70;100.00;76761.97;5029492;28;20103;-66
2023/10/13 02:48:57;;;;;;;35.65;15.00;;;;;;;-149.70;100.00;76755.84;5028515;28;20046;-66
2023/10/13 02:51:35;;;;;;;32.60;17.08;;;;;;;-149.70;100.00;76749.75;5029586;28;20489;-66
2023/10/13 02:54:11;;;;;;;32.83;16.13;;;;;;;-149.70;100.00;76737.56;5029522;28;20044;-66
2023/10/13 02:56:50;;;;;;;33.28;16.73;;;;;;;-149.70;100.00;76747.72;5030216;28;20041;-66
2023/10/13 02:59:33;;;;;;;33.58;19.15;;;;;;;-149.70;100.00;76743.66;5029668;28;20045;-65
2023/10/13 03:02:17;;;;;;;40.40;18.13;;;;;;;-149.70;100.00;76737.56;5044048;28;20048;-65
2023/10/13 03:04:46;;;;;;;37.08;18.70;;;;;;;-149.70;100.00;76731.47;5029494;28;20076;-65
2023/10/13 03:07:21;;;;;;;36.42;18.23;;;;;;;-149.70;100.00;76729.44;5028969;28;20049;-66
2023/10/13 03:09:52;;;;;;;31.90;18.45;;;;;;;-149.70;100.00;76731.47;5029153;28;20041;-65
2023/10/13 03:12:19;;;;;;;35.97;18.50;;;;;;;-149.70;100.00;76723.31;5028658;28;20053;-65
2023/10/13 03:14:47;;;;;;;42.90;18.83;;;;;;;-149.70;100.00;76727.38;5028870;28;20279;-65
2023/10/13 03:17:19;;;;;;;42.00;20.30;;;;;;;-149.70;100.00;76733.50;5028900;28;20050;-65
2023/10/13 03:19:49;;;;;;;37.22;19.95;;;;;;;-149.70;100.00;76723.31;5028207;28;20049;-65
2023/10/13 03:22:18;;;;;;;42.97;21.58;;;;;;;-149.70;100.00;76723.31;5028108;28;20049;-65
2023/10/13 03:24:46;;;;;;;34.53;20.73;;;;;;;-149.70;100.00;76713.16;5029338;28;20049;-65
2023/10/13 03:27:17;;;;;;;37.13;20.83;;;;;;;-149.70;100.00;76703.00;5028939;28;20046;-65
2023/10/13 03:29:54;;;;;;;55.20;21.73;;;;;;;-149.70;100.00;76696.88;5028151;28;20049;-65
2023/10/13 03:32:21;;;;;;;39.70;21.08;;;;;;;-149.70;100.00;76698.91;5029706;28;20049;-65
2023/10/13 03:37:38;;;;;;;46.97;23.88;;;;;;;-149.70;100.00;76682.66;5028478;28;20107;-65
2023/10/13 03:40:34;;;;;;;45.80;23.88;;;;;;;-149.70;100.00;76682.66;5029678;28;20400;-66
2023/10/13 03:43:04;;;;;;;55.45;24.52;;;;;;;-149.70;100.00;76686.72;5028495;28;20099;-65
2023/10/13 03:45:47;;;;;;;47.85;23.15;;;;;;;-149.70;100.00;76682.66;5028690;28;20049;-65
2023/10/13 03:48:54;;;;;;;46.22;24.00;;;;;;;-149.70;100.00;76684.69;5028358;28;20425;-65
2023/10/13 03:51:14;;;;;;;49.42;25.02;;;;;;;-149.70;100.00;76678.59;5026015;28;20152;-65
2023/10/13 03:53:54;;;;;;;49.85;24.77;;;;;;;-149.70;100.00;76678.59;5028484;28;20049;-65
2023/10/13 03:56:38;;;;;;;47.03;25.55;;;;;;;-149.70;100.00;76670.44;5028708;28;20049;-66
2023/10/13 03:59:09;;;;;;;60.35;26.95;;;;;;;-149.70;100.00;76670.44;5028881;28;20052;-65
2023/10/13 04:01:47;;;;;;;50.58;26.30;;;;;;;-149.70;100.00;76662.31;5029290;28;20041;-65
2023/10/13 04:04:29;;;;;;;48.42;26.85;;;;;;;-149.70;100.00;76662.31;5029203;28;20524;-66
2023/10/13 04:17:25;;;;;;;58.88;27.83;;;;;;;-149.70;100.00;76658.25;5028393;28;20128;-66
2023/10/13 04:36:11;;;;;;;67.00;29.60;;;;;;;-149.70;100.00;76619.63;5031791;28;20042;-68
2023/10/13 04:38:55;;;;;;;53.97;29.27;;;;;;;-149.70;100.00;76609.44;5032654;28;20056;-68
2023/10/13 04:41:38;;;;;;;58.03;30.00;;;;;;;-149.70;100.00;76619.63;5032767;28;20050;-68
2023/10/13 04:49:28;;;;;;;57.30;30.50;;;;;;;-149.70;100.00;76601.31;5032357;28;20041;-69
2023/10/13 04:51:59;;;;;;;65.82;31.10;;;;;;;-149.70;100.00;76603.34;5032076;28;20049;-69
2023/10/13 05:03:02;;;;;;;57.65;29.75;;;;;;;-149.70;100.00;76578.94;5032935;28;20461;-68
2023/10/13 05:05:45;;;;;;;53.78;29.60;;;;;;;-149.70;100.00;76583.03;5032770;28;20052;-69
2023/10/13 05:50:05;;;;;;;55.35;30.00;;;;;;;-149.70;100.00;76546.41;5032022;28;20042;-68
2023/10/13 06:28:57;;;;;;;52.90;26.17;;;;;;;-149.70;100.00;76450.84;5034420;28;20059;-69
2023/10/13 06:31:22;;;;;;;43.00;25.30;;;;;;;-149.70;100.00;76456.94;5047943;28;20045;-69
2023/10/13 06:33:49;;;;;;;40.25;22.70;;;;;;;-149.70;100.00;76454.91;5050838;28;20045;-69
2023/10/13 06:36:17;;;;;;;41.22;25.05;;;;;;;-149.70;100.00;76452.88;5050290;28;20045;-70
2023/10/13 06:38:44;;;;;;;44.38;24.10;;;;;;;-149.70;100.00;76444.75;5051533;28;20048;-68
2023/10/13 06:41:19;;;;;;;39.92;23.48;;;;;;;-149.70;100.00;76436.63;5051652;28;20087;-69
2023/10/13 06:43:58;;;;;;;42.25;23.98;;;;;;;-149.70;100.00;76436.63;5050310;28;20091;-69
2023/10/13 06:46:28;;;;;;;36.30;22.73;;;;;;;-149.70;100.00;76438.66;5051066;28;20056;-69
2023/10/13 06:48:59;;;;;;;46.30;25.05;;;;;;;-149.70;100.00;76430.53;5051151;28;20485;-69
2023/10/13 06:51:30;;;;;;;41.05;23.42;;;;;;;-149.70;100.00;76422.38;5051155;28;20515;-69
2023/10/13 06:53:58;;;;;;;46.42;22.50;;;;;;;-149.70;100.00;76402.06;5045927;28;20045;-68
2023/10/13 06:56:28;;;;;;;34.00;21.00;;;;;;;-149.70;100.00;76383.75;5060936;28;20063;-69
2023/10/13 06:59:04;;;;;;;35.40;20.65;;;;;;;-149.70;100.00;76367.47;5050176;28;20127;-68
2023/10/13 07:01:38;;;;;;;41.47;19.92;;;;;;;-149.70;100.00;76345.13;5050178;28;20075;-69
2023/10/13 07:04:16;;;;;;;29.67;19.67;;;;;;;-149.70;100.00;76324.78;5048885;28;20044;-69
2023/10/13 07:06:50;;;;;;;30.23;17.27;;;;;;;-149.70;100.00;76318.69;5050768;28;20040;-69
2023/10/13 07:12:06;;;;;;;27.10;15.77;;;;;;;-149.70;100.00;76288.19;5050896;28;20390;-68
2023/10/13 07:14:42;;;;;;;20.58;10.90;;;;;;;-149.70;100.00;76273.97;5050678;28;20481;-69
2023/10/13 07:17:23;;;;;;;23.55;14.02;;;;;;;-149.70;100.00;76265.81;5050562;28;20048;-69
2023/10/13 07:19:53;;;;;;;20.65;12.60;;;;;;;-149.70;100.00;76255.66;5050381;28;20386;-70
2023/10/13 07:22:20;;;;;;;26.25;13.02;;;;;;;-149.70;100.00;76249.56;5050485;28;20049;-69
2023/10/13 07:24:49;;;;;;;18.92;12.70;;;;;;;-149.70;100.00;76239.38;5050310;28;20044;-69
2023/10/13 07:27:23;;;;;;;20.23;12.20;;;;;;;-149.70;100.00;76241.41;5050278;28;20440;-69
2023/10/13 07:32:59;;;;;;;22.70;11.97;;;;;;;-149.70;100.00;76227.19;5012513;28;20044;-69
2023/10/13 07:35:30;;;;;;;23.48;11.52;;;;;;;-149.70;100.00;76210.94;5051428;28;20041;-69
2023/10/13 07:37:59;;;;;;;20.70;11.57;;;;;;;-149.70;100.00;76200.75;5050534;28;20051;-69
2023/10/13 07:43:08;;;;;;;21.85;10.45;;;;;;;-149.70;100.00;76178.41;5049680;28;20045;-69
2023/10/13 07:45:40;;;;;;;21.00;11.25;;;;;;;-149.70;100.00;76174.31;5049511;28;20045;-68
2023/10/13 07:48:19;;;;;;;18.48;10.02;;;;;;;-149.70;100.00;76176.38;5050138;28;20198;-68
2023/10/13 07:51:16;;;;;;;17.20;10.52;;;;;;;-149.70;100.00;76188.56;5049261;28;20128;-68
2023/10/13 07:53:43;;;;;;;22.98;9.85;;;;;;;-149.70;100.00;76178.41;5050049;28;20124;-68
2023/10/13 07:56:13;;;;;;;18.13;9.55;;;;;;;-149.70;100.00;76174.31;5050581;28;20056;-68
2023/10/13 07:58:52;;;;;;;18.42;9.48;;;;;;;-149.70;100.00;76188.56;5050330;28;20182;-68
2023/10/13 08:01:19;;;;;;;14.77;9.43;;;;;;;-149.70;100.00;76182.47;5049825;28;20045;-68
2023/10/13 08:03:47;;;;;;;17.67;9.10;;;;;;;-149.70;100.00;76164.16;5050292;28;20052;-69
2023/10/13 08:08:50;;;;;;;18.70;9.32;;;;;;;-149.70;100.00;76182.47;5051527;28;20123;-69
2023/10/13 08:13:58;;;;;;;14.82;8.82;;;;;;;-149.70;100.00;76172.28;5054330;28;20509;-69
2023/10/13 08:16:47;;;;;;;17.10;8.93;;;;;;;-149.70;100.00;76162.13;5054328;28;20043;-68
2023/10/13 08:19:15;;;;;;;14.32;8.65;;;;;;;-149.70;100.00;76149.94;5053997;28;20120;-69
2023/10/13 08:21:51;;;;;;;18.17;9.13;;;;;;;-149.70;100.00;76119.44;5054490;28;20055;-69
2023/10/13 08:24:25;;;;;;;12.68;8.60;;;;;;;-149.70;100.00;76107.22;5053434;28;20041;-69
2023/10/13 08:37:47;;;;;;;12.88;8.02;;;;;;;-149.70;100.00;76038.09;5053959;28;20090;-69
2023/10/13 08:41:25;;;;;;;24.77;7.88;;;;;;;-149.70;100.00;76052.34;5053723;28;20059;-70
2023/10/13 08:43:11;;;;;;;17.00;8.18;;;;;;;-149.70;100.00;76056.41;5054082;28;20036;-69
2023/10/13 08:53:27;;;;;;;17.35;7.65;;;;;;;-149.70;100.00;76072.66;5053688;28;20144;-69
2023/10/13 08:59:05;;;;;;;19.33;7.75;;;;;;;-149.70;100.00;76060.47;5053687;28;20057;-69
2023/10/13 09:09:34;;;;;;;14.95;7.68;;;;;;;-149.70;100.00;76048.28;5053218;28;20107;-69
2023/10/13 09:12:19;;;;;;;16.90;8.38;;;;;;;-149.70;100.00;76036.06;5053066;28;20064;-69
2023/10/13 09:14:57;;;;;;;14.02;7.40;;;;;;;-149.70;100.00;76032.00;5053215;28;20053;-69
2023/10/13 09:17:35;;;;;;;15.27;7.88;;;;;;;-149.70;100.00;76029.97;5053298;28;20053;-69
2023/10/13 09:25:36;;;;;;;16.25;7.80;;;;;;;-149.70;100.00;76025.91;5053033;28;20153;-69
2023/10/13 09:28:14;;;;;;;18.58;8.30;;;;;;;-149.70;100.00;76019.81;5052383;28;20060;-70
2023/10/13 09:30:52;;;;;;;18.23;8.27;;;;;;;-149.70;100.00;76021.84;5052831;28;20095;-68
2023/10/13 09:33:35;;;;;;;14.13;8.55;;;;;;;-149.70;100.00;76025.91;5052602;28;20064;-67
2023/10/13 09:36:12;;;;;;;18.40;7.55;;;;;;;-149.70;100.00;76044.22;5052440;28;20412;-68
2023/10/13 09:38:40;;;;;;;12.45;7.20;;;;;;;-149.70;100.00;76019.81;5052463;28;20053;-68
2023/10/13 09:41:26;;;;;;;11.15;8.07;;;;;;;-149.70;100.00;76036.06;5052738;28;20049;-68
2023/10/13 09:43:57;;;;;;;15.00;8.13;;;;;;;-149.70;100.00;76025.91;5052528;28;20091;-69
2023/10/13 09:46:28;;;;;;;14.43;8.18;;;;;;;-149.70;100.00;76023.88;5052754;28;20041;-68
2023/10/13 09:49:14;;;;;;;15.40;8.52;;;;;;;-149.70;100.00;76021.84;5052594;28;20091;-69
2023/10/13 09:51:45;;;;;;;11.88;7.85;;;;;;;-149.70;100.00;76011.69;5052421;28;20403;-69
2023/10/13 09:54:29;;;;;;;14.68;8.60;;;;;;;-149.70;100.00;76009.66;5034605;28;20047;-68
2023/10/13 09:57:17;;;;;;;12.82;8.25;;;;;;;-149.70;100.00;76009.66;5052078;28;20052;-69
2023/10/13 09:59:56;;;;;;;15.05;8.43;;;;;;;-149.70;100.00;75987.28;5052085;28;20072;-69
2023/10/13 10:02:26;;;;;;;19.67;9.02;;;;;;;-149.70;100.00;75981.19;5051290;28;20048;-69
2023/10/13 10:04:55;;;;;;;19.40;9.35;;;;;;;-149.70;100.00;75979.16;5032259;28;20050;-69
2023/10/13 10:07:29;;;;;;;12.43;7.93;;;;;;;-149.70;100.00;75966.94;5032215;28;20128;-69
2023/10/13 10:09:58;;;;;;;14.52;7.93;;;;;;;-149.70;100.00;75954.75;5032079;28;20053;-69
2023/10/13 10:12:46;;;;;;;17.10;8.27;;;;;;;-149.70;100.00;75952.72;5031971;28;20056;-69
2023/10/13 10:15:30;;;;;;;16.17;8.57;;;;;;;-149.70;100.00;75950.69;5031972;28;20401;-69
2023/10/13 10:17:57;;;;;;;12.20;7.85;;;;;;;-149.70;100.00;75954.75;5031894;28;20037;-69
2023/10/13 10:20:51;;;;;;;13.60;7.57;;;;;;;-149.70;100.00;75952.72;5031737;28;20053;-67
2023/10/13 10:23:43;;;;;;;14.00;8.00;;;;;;;-149.70;100.00;75954.75;5031576;28;20041;-68
2023/10/13 10:26:15;;;;;;;16.58;7.82;;;;;;;-149.70;100.00;75946.63;5031314;28;20449;-69
2023/10/13 10:28:43;;;;;;;23.63;7.75;;;;;;;-149.70;100.00;75938.50;5031704;28;20080;-69
2023/10/13 10:31:16;;;;;;;16.35;7.78;;;;;;;-149.70;100.00;75944.59;5031768;28;20069;-69
2023/10/13 10:33:46;;;;;;;20.23;8.38;;;;;;;-149.70;100.00;75948.66;5030009;28;20132;-68
2023/10/13 10:36:14;;;;;;;15.65;8.00;;;;;;;-149.70;100.00;75938.50;5030646;28;20106;-68
2023/10/13 10:38:58;;;;;;;15.77;8.68;;;;;;;-149.70;100.00;75938.50;5030995;28;20049;-68
2023/10/13 10:41:37;;;;;;;13.10;8.48;;;;;;;-149.70;100.00;75938.50;5030987;28;20487;-69
2023/10/13 10:44:22;;;;;;;13.57;7.03;;;;;;;-149.70;100.00;75934.41;5031721;28;20045;-68
2023/10/13 10:47:01;;;;;;;12.02;7.80;;;;;;;-149.70;100.00;75922.22;5030472;28;20052;-68
2023/10/13 10:49:31;;;;;;;17.20;8.55;;;;;;;-149.70;100.00;75914.09;5031398;28;20049;-69
2023/10/13 10:52:05;;;;;;;14.13;8.40;;;;;;;-149.70;100.00;75918.16;5030009;28;20397;-68
2023/10/13 10:54:32;;;;;;;18.90;8.00;;;;;;;-149.70;100.00;75905.97;5030794;28;20168;-68
2023/10/13 10:57:37;;;;;;;19.02;8.25;;;;;;;-149.70;100.00;75905.97;5030460;28;20045;-68
2023/10/13 11:00:09;;;;;;;10.18;7.97;;;;;;;-149.70;100.00;75901.88;5028592;28;20049;-69
2023/10/13 11:02:37;;;;;;;13.40;8.18;;;;;;;-149.70;100.00;75883.59;5030321;28;20049;-69
2023/10/13 11:05:06;;;;;;;13.88;7.68;;;;;;;-149.70;100.00;75881.56;5021431;28;20042;-68
2023/10/13 11:07:34;;;;;;;15.98;7.63;;;;;;;-149.70;100.00;75873.44;5030636;28;20080;-69
2023/10/13 11:10:11;;;;;;;16.83;8.48;;;;;;;-149.70;100.00;75849.03;5030085;28;20041;-68
2023/10/13 11:12:53;;;;;;;15.77;8.53;;;;;;;-149.70;100.00;75851.06;5033994;28;20068;-69
2023/10/13 11:15:32;;;;;;;11.85;7.93;;;;;;;-149.70;100.00;75855.13;5030539;28;20809;-68
2023/10/13 11:18:00;;;;;;;13.27;8.32;;;;;;;-149.70;100.00;75840.91;5030230;28;20049;-68
2023/10/13 11:20:43;;;;;;;18.42;8.52;;;;;;;-149.70;100.00;75820.56;5030169;28;20567;-68
2023/10/13 11:23:13;;;;;;;14.40;7.93;;;;;;;-149.70;100.00;75826.66;5030463;28;20093;-69
2023/10/13 11:25:43;;;;;;;16.42;8.27;;;;;;;-149.70;100.00;75820.56;5030623;28;20045;-68
2023/10/13 11:28:17;;;;;;;13.75;7.90;;;;;;;-149.70;100.00;75818.53;5028805;28;20049;-69
2023/10/13 11:30:51;;;;;;;11.27;7.10;;;;;;;-149.70;100.00;75812.44;5009144;28;20072;-70
2023/10/13 11:33:23;;;;;;;14.65;7.40;;;;;;;-149.70;100.00;75820.56;5010364;28;20053;-69
2023/10/13 11:38:27;;;;;;;11.32;7.57;;;;;;;-149.70;100.00;75802.28;5010425;28;20045;-69
2023/10/13 11:43:52;;;;;;;17.17;8.45;;;;;;;-149.70;100.00;75796.19;5009602;28;20053;-69
2023/10/13 11:51:45;;;;;;;13.75;6.88;;;;;;;-149.70;100.00;75777.88;5010487;28;20046;-67
2023/10/13 11:54:23;;;;;;;15.27;6.90;;;;;;;-149.70;100.00;75765.69;5010321;28;20046;-69
2023/10/13 11:56:50;;;;;;;16.25;7.53;;;;;;;-149.70;100.00;75759.59;5009957;28;20069;-69
2023/10/13 11:59:24;;;;;;;14.95;6.57;;;;;;;-149.70;100.00;75739.25;5010385;28;20501;-68
2023/10/13 12:04:43;;;;;;;22.98;6.90;;;;;;;-149.70;100.00;75723.00;5010305;28;20052;-68
2023/10/13 12:07:20;;;;;;;16.25;6.70;;;;;;;-149.70;100.00;75710.78;5010571;28;20041;-68
2023/10/13 12:12:25;;;;;;;16.52;7.18;;;;;;;-149.70;100.00;75686.41;5009855;28;20493;-69
2023/10/13 12:14:52;;;;;;;15.10;6.90;;;;;;;-149.70;100.00;75694.53;4992598;28;20093;-67
2023/10/13 12:17:24;;;;;;;19.17;7.15;;;;;;;-149.70;100.00;75690.47;4992334;28;20053;-69
2023/10/13 12:19:52;;;;;;;14.45;6.97;;;;;;;-149.70;100.00;75680.28;5009982;28;20065;-68
2023/10/13 12:22:26;;;;;;;16.77;5.80;;;;;;;-149.70;100.00;75676.22;5009856;28;20058;-69
2023/10/13 12:24:53;;;;;;;22.60;6.75;;;;;;;-149.70;100.00;75649.81;5009835;28;20152;-67
2023/10/13 12:27:27;;;;;;;13.50;6.15;;;;;;;-149.70;100.00;75643.69;5009577;28;20049;-68
2023/10/13 12:29:58;;;;;;;17.65;6.55;;;;;;;-149.70;100.00;75629.47;5016855;28;20417;-68
2023/10/13 12:32:30;;;;;;;13.02;6.25;;;;;;;-149.70;100.00;75617.28;5028961;28;20073;-69
2023/10/13 12:34:59;;;;;;;15.15;6.82;;;;;;;-149.70;100.00;75613.22;5029468;28;20427;-69
2023/10/13 12:48:58;;;;;;;13.70;6.40;;;;;;;-149.70;100.00;75570.53;5022680;28;20095;-68
2023/10/13 12:54:04;;;;;;;16.70;5.30;;;;;;;-149.70;100.00;75556.28;5028988;28;20049;-68
2023/10/13 12:56:31;;;;;;;20.00;6.13;;;;;;;-149.70;100.00;75540.03;5032679;28;20046;-68
2023/10/13 12:58:57;;;;;;;13.30;5.60;;;;;;;-149.70;100.00;75542.06;5032066;28;20073;-68
2023/10/13 13:01:34;;;;;;;16.30;5.95;;;;;;;-149.70;100.00;75540.03;5032734;28;20077;-68
2023/10/13 13:04:03;;;;;;;15.82;5.80;;;;;;;-149.70;100.00;75519.69;5032888;28;20416;-69
2023/10/13 13:06:30;;;;;;;14.23;5.68;;;;;;;-149.70;100.00;75507.50;5032488;28;20055;-66
2023/10/13 13:08:58;;;;;;;14.20;5.63;;;;;;;-149.70;100.00;75499.38;5032140;28;20428;-66
2023/10/13 13:11:25;;;;;;;16.13;5.95;;;;;;;-149.70;100.00;75493.28;5024396;28;20390;-65
2023/10/13 13:13:53;;;;;;;12.77;6.10;;;;;;;-149.70;100.00;75481.06;5032631;28;20120;-65
2023/10/13 13:16:23;;;;;;;23.02;6.32;;;;;;;-149.70;100.00;75458.72;5032303;28;20103;-66
2023/10/13 13:18:51;;;;;;;15.82;5.63;;;;;;;-149.70;100.00;75438.38;5032477;28;20101;-66
2023/10/13 13:21:23;;;;;;;19.10;5.82;;;;;;;-149.70;100.00;75442.44;5031329;28;20045;-66
2023/10/13 13:23:56;;;;;;;20.83;5.97;;;;;;;-149.70;100.00;75432.28;5032014;28;20063;-65
2023/10/13 13:26:23;;;;;;;19.45;6.47;;;;;;;-149.70;100.00;75426.19;5031976;28;20053;-65
2023/10/13 13:28:50;;;;;;;18.73;5.95;;;;;;;-149.70;100.00;75414.00;5038595;28;20462;-65
2023/10/13 13:31:18;;;;;;;14.80;5.97;;;;;;;-149.70;100.00;75409.94;5052187;28;20041;-65
2023/10/13 13:33:45;;;;;;;22.65;6.13;;;;;;;-149.70;100.00;75403.81;5052681;28;20049;-66
2023/10/13 13:36:15;;;;;;;18.33;6.30;;;;;;;-149.70;100.00;75405.84;5047874;28;20045;-65
2023/10/13 13:38:48;;;;;;;21.55;5.55;;;;;;;-149.70;100.00;75393.66;5017835;28;20048;-65
2023/10/13 13:41:17;;;;;;;19.35;6.05;;;;;;;-149.70;100.00;75405.84;5012649;28;20042;-65
2023/10/13 13:43:55;;;;;;;19.52;6.10;;;;;;;-149.70;100.00;75389.59;5012711;28;20046;-66
2023/10/13 13:46:32;;;;;;;19.00;5.53;;;;;;;-149.70;100.00;75379.44;5012456;28;20057;-65
2023/10/13 13:49:00;;;;;;;24.75;6.68;;;;;;;-149.70;100.00;75369.28;5012701;28;20441;-65
2023/10/13 13:51:28;;;;;;;18.20;5.90;;;;;;;-149.70;100.00;75369.28;5012433;28;20058;-65
2023/10/13 13:53:56;;;;;;;21.17;6.57;;;;;;;-149.70;100.00;75346.91;5012466;28;20049;-65
2023/10/13 13:56:25;;;;;;;28.27;6.78;;;;;;;-149.70;100.00;75355.03;5012536;28;20421;-65
2023/10/13 13:58:55;;;;;;;15.95;5.57;;;;;;;-149.70;100.00;75334.72;4994978;28;20046;-65
2023/10/13 14:01:25;;;;;;;20.17;5.73;;;;;;;-149.70;100.00;75342.84;5012167;28;20129;-65
2023/10/13 14:03:56;;;;;;;16.63;5.90;;;;;;;-149.70;100.00;75330.66;5012266;28;20050;-66
2023/10/13 14:06:26;;;;;;;22.67;6.45;;;;;;;-149.70;100.00;75330.66;5011258;28;20129;-65
2023/10/13 14:08:59;;;;;;;21.85;6.15;;;;;;;-149.70;100.00;75320.47;5012275;28;20555;-65
2023/10/13 14:14:11;;;;;;;18.20;5.68;;;;;;;-149.70;100.00;75312.34;5011784;28;20124;-66
2023/10/13 14:16:47;;;;;;;18.23;6.53;;;;;;;-149.70;100.00;75314.38;5011314;28;20038;-66
2023/10/13 14:19:19;;;;;;;20.02;6.32;;;;;;;-149.70;100.00;75310.31;5011498;28;20080;-66
2023/10/13 14:21:53;;;;;;;14.25;5.90;;;;;;;-149.70;100.00;75316.41;5011233;28;20409;-65
2023/10/13 14:24:27;;;;;;;24.38;6.53;;;;;;;-149.70;100.00;75320.47;5011982;28;20077;-71
2023/10/13 14:26:56;;;;;;;20.52;6.97;;;;;;;-149.70;100.00;75314.38;5011005;28;20120;-66
2023/10/13 14:29:26;;;;;;;17.23;5.90;;;;;;;-149.70;100.00;75310.31;5010835;28;20076;-66
2023/10/13 14:31:53;;;;;;;16.58;6.10;;;;;;;-149.70;100.00;75308.28;5011885;28;20068;-67
2023/10/13 14:34:21;;;;;;;19.08;6.35;;;;;;;-149.70;100.00;75312.34;5011166;28;20053;-66
2023/10/13 14:36:49;;;;;;;16.88;5.70;;;;;;;-149.70;100.00;75312.34;5020738;28;20050;-66
2023/10/13 14:39:15;;;;;;;23.15;6.65;;;;;;;-149.70;100.00;75306.25;5030538;28;20046;-65
2023/10/13 14:41:42;;;;;;;20.52;6.30;;;;;;;-48.09;100.00;89702.84;5030860;28;20489;-65
2023/10/13 14:44:09;;;;;;;16.23;6.40;;;;;;;2.42;100.00;97628.25;5030922;28;20048;-65
2023/10/13 14:46:35;;;;;;;29.80;6.20;;;;;;;9.06;100.00;98692.72;5030661;28;20045;-66
2023/10/13 14:49:04;;;;;;;27.00;6.25;;;;;;;8.38;100.00;98588.38;5030536;28;20505;-66
2023/10/13 14:51:31;;;;;;;24.17;6.65;;;;;;;8.26;100.00;98568.59;5030055;28;20045;-66
2023/10/13 14:54:03;;;;;;;16.45;6.50;;;;;;;6.81;100.00;98336.38;5030621;28;20420;-66
2023/10/13 14:56:30;;;;;;;21.90;5.82;;;;;;;3.52;100.00;97810.09;5029841;28;20053;-66
2023/10/13 14:58:57;;;;;;;23.08;6.72;;;;;;;8.45;100.00;98608.97;5030121;28;20046;-65
2023/10/13 15:01:26;;;;;;;21.15;6.10;;;;;;;9.76;100.00;98811.16;5029686;28;20148;-66
2023/10/13 15:03:55;;;;;;;21.20;6.90;;;;;;;10.03;100.00;98846.06;5029838;28;20045;-65
2023/10/13 15:06:29;;;;;;;18.65;5.97;;;;;;;10.35;100.00;98889.19;5030004;28;20118;-65
2023/10/13 15:08:58;;;;;;;27.50;6.80;;;;;;;10.51;100.00;98915.63;5030330;28;20049;-65